Hlavní strana
METAR-TAF:

METAR-TAF

Letiště :

Jimmy Lake, Saskatchewan, Kanada

zeměpisná šířka: 54-55N, zeměpisná délka: 109-57W, výška: 658 m

Aktuální stav počasí

Zpráva byla vytvořena před 29 minutami, v 23:00 UTC
Východojihovýchodní vítr 8 kt
Teplota 27°C
Vlhkost vzduchu 21%
Tlak 1013 hPa
Viditelnost: 14.5 km
Jasno

METAR: CWHN 222300Z AUTO 12008KT 9SM CLR 27/03 A2991 RMK SLP135

Čas: 17:29 (23:29 UTC)


TAF: chybějící

Stav a předpovědi počasí z více než 4 000 letišť (zprávy METAR a TAF).

Červené a žluté tečky na mapě představují dostupné meteorologické stanice.

Když kurzor umístíte na tečku, zobrazí se název stanice.

Pak kliknutím zobrazíte stav a předpověď počasí.

Chcete-li změnit mapu, kliknutím na zelené tlačítko se znaménkem +mapu přiblížíte, kliknutím na zelené tlačítko se znaménkem – mapu oddálíte a kliknutím na zelené šipky přejdete na sousední mapy.


METAR-TAF: